Time;durP1;ratioP1;P1;durP2;ratioP2;P2;SDS_P1;SDS_P2;PMS_P1;PMS_P2;Temp;Humidity;BMP_temperature;BMP_pressure;BME280_temperature;BME280_humidity;BME280_pressure;Samples;Min_cycle;Max_cycle;Signal;HPM_P1;HPM_P2
2022/12/05 00:01:14;;;;;;;;;;;;;;;17.01;44.67;102048.38;5055477;28;1833;-60
2022/12/05 00:03:40;;;;;;;;;;;;;;;16.92;44.88;102045.16;5054552;28;1925;-58
2022/12/05 00:06:05;;;;;;;;;;;;;;;17.52;44.50;102050.38;5055295;28;1211;-63
2022/12/05 00:08:31;;;;;;;;;;;;;;;16.90;45.30;102044.56;5055929;28;1136;-60
2022/12/05 00:10:56;;;;;;;;;;;;;;;17.13;45.37;102047.47;5056169;28;1124;-60
2022/12/05 00:13:22;;;;;;;;;;;;;;;16.98;45.50;102053.50;5055304;28;1088;-60
2022/12/05 00:15:47;;;;;;;;;;;;;;;18.20;43.30;102050.34;5055567;28;857;-60
2022/12/05 00:18:12;;;;;;;;;;;;;;;19.02;41.20;102050.56;5055787;28;1092;-60
2022/12/05 00:20:43;;;;;;;;;;;;;;;17.52;44.41;102053.13;5055926;28;1216;-58
2022/12/05 00:23:09;;;;;;;;;;;;;;;17.07;45.00;102050.13;5038342;28;1982;-61
2022/12/05 00:25:34;;;;;;;;;;;;;;;17.95;43.84;102049.72;5059173;28;1191;-60
2022/12/05 00:28:00;;;;;;;;;;;;;;;17.15;44.97;102048.03;5059826;28;921;-59
2022/12/05 00:30:25;;;;;;;;;;;;;;;17.39;45.02;102046.00;5047793;28;1246;-61
2022/12/05 00:32:51;;;;;;;;;;;;;;;17.54;44.58;102035.25;5059584;28;1104;-60
2022/12/05 00:35:16;;;;;;;;;;;;;;;16.92;45.51;102049.81;5059560;28;1226;-60
2022/12/05 00:37:42;;;;;;;;;;;;;;;16.75;45.25;102047.81;5041910;28;1218;-60
2022/12/05 00:40:07;;;;;;;;;;;;;;;17.35;45.00;102045.69;5059700;28;941;-57
2022/12/05 00:42:33;;;;;;;;;;;;;;;16.69;45.85;102042.44;5059756;28;1918;-59
2022/12/05 00:44:58;;;;;;;;;;;;;;;17.88;44.01;102043.53;5059640;28;1397;-59
2022/12/05 00:47:23;;;;;;;;;;;;;;;17.06;45.45;102047.63;5059890;28;1155;-57
2022/12/05 00:49:49;;;;;;;;;;;;;;;16.67;45.63;102041.88;5059510;28;1171;-58
2022/12/05 00:52:14;;;;;;;;;;;;;;;17.49;44.59;102045.34;5059467;28;957;-60
2022/12/05 00:54:40;;;;;;;;;;;;;;;16.75;45.87;102039.56;5059545;28;1112;-61
2022/12/05 00:57:05;;;;;;;;;;;;;;;18.04;43.94;102047.38;5059434;28;1072;-59
2022/12/05 00:59:31;;;;;;;;;;;;;;;17.31;44.92;102027.19;5045446;28;1182;-54
2022/12/05 01:01:56;;;;;;;;;;;;;;;16.74;45.60;102039.81;5052494;28;1157;-54
2022/12/05 01:04:22;;;;;;;;;;;;;;;17.86;43.62;102020.09;5054769;28;1909;-53
2022/12/05 01:06:48;;;;;;;;;;;;;;;16.90;45.79;102025.34;5055244;28;1322;-53
2022/12/05 01:09:14;;;;;;;;;;;;;;;17.22;45.31;102019.34;5059485;28;1317;-53
2022/12/05 01:11:40;;;;;;;;;;;;;;;17.16;45.16;102027.75;5053315;28;1323;-51
2022/12/05 01:14:05;;;;;;;;;;;;;;;17.33;45.21;102031.31;5045812;28;1259;-55
2022/12/05 01:16:32;;;;;;;;;;;;;;;18.65;42.17;102032.78;5059132;28;929;-56
2022/12/05 01:18:58;;;;;;;;;;;;;;;17.27;44.99;102027.66;5058987;28;1136;-55
2022/12/05 01:21:24;;;;;;;;;;;;;;;17.61;44.69;102033.19;5058961;28;1160;-55
2022/12/05 01:23:49;;;;;;;;;;;;;;;17.68;44.33;102026.69;5058986;28;1927;-52
2022/12/05 01:26:15;;;;;;;;;;;;;;;16.96;45.15;102020.78;5059244;28;1196;-55
2022/12/05 01:28:41;;;;;;;;;;;;;;;17.91;44.14;102032.03;5058591;28;981;-51
2022/12/05 01:31:08;;;;;;;;;;;;;;;17.04;45.41;102017.63;5059418;28;1187;-53
2022/12/05 01:33:34;;;;;;;;;;;;;;;17.44;45.28;102024.91;5058842;28;1140;-54
2022/12/05 01:35:59;;;;;;;;;;;;;;;17.94;43.64;102009.50;5058109;28;1309;-53
2022/12/05 01:38:24;;;;;;;;;;;;;;;17.00;45.34;101996.38;5059039;28;1140;-54
2022/12/05 01:40:58;;;;;;;;;;;;;;;18.87;41.72;101998.84;5058765;28;904;-54
2022/12/05 01:43:24;;;;;;;;;;;;;;;17.57;44.37;101990.78;5058588;28;1965;-53
2022/12/05 01:45:49;;;;;;;;;;;;;;;17.03;45.01;101991.22;5058915;28;1184;-55
2022/12/05 01:48:25;;;;;;;;;;;;;;;17.99;43.87;102003.25;5058880;28;1230;-55
2022/12/05 01:50:51;;;;;;;;;;;;;;;17.19;45.16;101999.75;5040798;28;1108;-52
2022/12/05 01:53:16;;;;;;;;;;;;;;;16.78;45.30;101997.06;5040751;28;1206;-53
2022/12/05 01:55:42;;;;;;;;;;;;;;;17.68;44.33;101989.00;5040498;28;1187;-55
2022/12/05 01:58:07;;;;;;;;;;;;;;;16.94;45.47;101992.69;5058498;28;1132;-54
2022/12/05 02:00:32;;;;;;;;;;;;;;;17.28;45.41;101979.03;5040721;28;1207;-54
2022/12/05 02:02:59;;;;;;;;;;;;;;;17.10;45.28;101972.66;5040439;28;1914;-52
2022/12/05 02:05:24;;;;;;;;;;;;;;;16.68;45.52;101978.47;5057902;28;1215;-53
2022/12/05 02:07:50;;;;;;;;;;;;;;;17.90;43.60;101975.31;5058479;28;1204;-53
2022/12/05 02:10:15;;;;;;;;;;;;;;;16.80;45.88;101967.41;5040624;28;1148;-53
2022/12/05 02:12:41;;;;;;;;;;;;;;;16.56;45.59;101977.66;5057942;28;1210;-53
2022/12/05 02:15:06;;;;;;;;;;;;;;;17.70;44.21;101975.03;5039001;28;1557;-54
2022/12/05 02:17:56;;;;;;;;;;;;;;;16.97;46.04;101972.16;5058064;28;1246;-54
2022/12/05 02:20:28;;;;;;;;;;;;;;;19.08;41.34;101967.66;5032221;28;1219;-55
2022/12/05 02:22:54;;;;;;;;;;;;;;;17.60;44.21;101967.44;5032761;28;1914;-55
2022/12/05 02:25:22;;;;;;;;;;;;;;;16.99;44.98;101970.00;5058050;28;1116;-53
2022/12/05 02:28:00;;;;;;;;;;;;;;;16.89;44.94;101970.66;5057055;28;1179;-54
2022/12/05 02:30:26;;;;;;;;;;;;;;;17.57;44.42;101959.69;5058086;28;1127;-54
2022/12/05 02:33:01;;;;;;;;;;;;;;;16.94;45.33;101970.72;5040187;28;1219;-55
2022/12/05 02:35:26;;;;;;;;;;;;;;;16.69;45.43;101971.91;5050955;28;1150;-54
2022/12/05 02:38:04;;;;;;;;;;;;;;;17.82;44.12;101986.72;5057385;28;1286;-52
2022/12/05 02:40:31;;;;;;;;;;;;;;;16.82;45.71;101991.91;5040071;28;1152;-54
2022/12/05 02:43:04;;;;;;;;;;;;;;;18.40;42.92;101987.28;5039932;28;1972;-53
2022/12/05 02:45:30;;;;;;;;;;;;;;;17.66;44.12;101995.88;5039962;28;1113;-54
2022/12/05 02:47:56;;;;;;;;;;;;;;;17.02;45.18;101997.81;5056674;28;1148;-52
2022/12/05 02:50:22;;;;;;;;;;;;;;;17.22;45.39;101996.50;5057962;28;1120;-54
2022/12/05 02:52:48;;;;;;;;;;;;;;;17.43;44.84;102009.53;5039386;28;1121;-52
2022/12/05 02:55:14;;;;;;;;;;;;;;;16.92;45.28;102003.13;5039857;28;1245;-52
2022/12/05 02:57:39;;;;;;;;;;;;;;;16.99;45.57;102009.28;5054766;28;1183;-54
2022/12/05 03:00:05;;;;;;;;;;;;;;;17.29;45.23;102013.66;5039556;28;1136;-55
2022/12/05 03:02:31;;;;;;;;;;;;;;;18.07;43.57;102008.31;5057320;28;1918;-51
2022/12/05 03:05:17;;;;;;;;;;;;;;;19.36;40.62;102003.47;5056739;28;940;-54
2022/12/05 03:07:43;;;;;;;;;;;;;;;17.48;44.67;102000.53;5049247;28;1258;-53
2022/12/05 03:10:08;;;;;;;;;;;;;;;17.09;44.95;102003.97;5039418;28;1200;-52
2022/12/05 03:12:38;;;;;;;;;;;;;;;18.09;43.62;102006.16;5039779;28;1176;-55
2022/12/05 03:15:08;;;;;;;;;;;;;;;17.18;45.35;102011.81;5039201;28;1172;-54
2022/12/05 03:17:34;;;;;;;;;;;;;;;17.04;45.55;102011.28;5038743;28;929;-53
2022/12/05 03:20:04;;;;;;;;;;;;;;;17.86;44.06;102014.59;5057017;28;1199;-55
2022/12/05 03:22:49;;;;;;;;;;;;;;;17.03;45.54;102001.41;5038918;28;1910;-55
2022/12/05 03:25:15;;;;;;;;;;;;;;;17.65;44.83;102006.00;5055976;28;1100;-53
2022/12/05 03:27:40;;;;;;;;;;;;;;;17.12;45.53;102004.56;5038658;28;1216;-58
2022/12/05 03:30:09;;;;;;;;;;;;;;;18.05;43.61;101999.50;5056491;28;1139;-56
2022/12/05 03:32:40;;;;;;;;;;;;;;;18.43;42.69;101984.00;5056670;28;1144;-56
2022/12/05 03:35:06;;;;;;;;;;;;;;;17.26;45.00;102000.41;5056439;28;1212;-56
2022/12/05 03:37:31;;;;;;;;;;;;;;;18.10;43.88;102002.34;5056397;28;1140;-56
2022/12/05 03:40:17;;;;;;;;;;;;;;;17.44;44.84;101994.69;5055782;28;1210;-56
2022/12/05 03:42:46;;;;;;;;;;;;;;;17.12;45.50;101979.84;5042472;28;1922;-56
2022/12/05 03:45:11;;;;;;;;;;;;;;;17.89;43.98;101976.41;5038822;28;1148;-55
2022/12/05 03:47:43;;;;;;;;;;;;;;;17.12;45.27;101988.09;5038797;28;1156;-56
2022/12/05 03:50:19;;;;;;;;;;;;;;;16.85;45.53;101991.41;5038837;28;1140;-56
2022/12/05 03:52:46;;;;;;;;;;;;;;;17.23;45.50;101992.69;5038688;28;1144;-56
2022/12/05 03:55:12;;;;;;;;;;;;;;;17.70;44.69;102000.59;5038603;28;1144;-56
2022/12/05 03:57:42;;;;;;;;;;;;;;;19.23;41.00;101999.22;5038444;28;1191;-56
2022/12/05 04:00:11;;;;;;;;;;;;;;;17.59;44.45;101996.84;5055815;28;1147;-54
2022/12/05 04:02:48;;;;;;;;;;;;;;;17.08;44.97;101996.81;5038254;28;1914;-56
2022/12/05 04:05:22;;;;;;;;;;;;;;;16.84;44.91;102006.22;5029808;28;1336;-56
2022/12/05 04:07:48;;;;;;;;;;;;;;;17.21;44.83;102003.09;5035144;28;1208;-56
2022/12/05 04:10:18;;;;;;;;;;;;;;;17.04;45.44;101994.81;5037425;28;1220;-56
2022/12/05 04:12:44;;;;;;;;;;;;;;;18.09;43.77;102000.66;5056226;28;1132;-56
2022/12/05 04:15:17;;;;;;;;;;;;;;;18.86;41.86;102009.03;5055945;28;1120;-56
2022/12/05 04:17:47;;;;;;;;;;;;;;;17.38;44.98;102005.88;5038127;28;936;-58
2022/12/05 04:23:00;;;;;;;;;;;;;;;18.01;43.91;102016.78;5028249;28;1910;-56
2022/12/05 04:25:32;;;;;;;;;;;;;;;17.03;45.58;102010.47;5055607;28;1116;-57
2022/12/05 04:27:58;;;;;;;;;;;;;;;18.36;43.41;102019.19;5034532;28;1041;-57
2022/12/05 04:30:24;;;;;;;;;;;;;;;18.00;43.71;102028.88;5053773;28;1187;-58
2022/12/05 04:32:59;;;;;;;;;;;;;;;17.18;45.28;102029.16;5025284;28;1235;-58
2022/12/05 04:35:27;;;;;;;;;;;;;;;17.57;44.91;102020.19;5038208;28;1089;-60
2022/12/05 04:37:54;;;;;;;;;;;;;;;17.49;44.77;102032.44;5038187;28;1180;-60
2022/12/05 04:40:28;;;;;;;;;;;;;;;17.01;45.46;102020.88;5050275;28;1163;-59
2022/12/05 04:42:53;;;;;;;;;;;;;;;16.77;45.44;102034.69;5038254;28;1914;-57
2022/12/05 04:45:20;;;;;;;;;;;;;;;17.19;45.29;102021.75;5037905;28;1234;-58
2022/12/05 04:47:47;;;;;;;;;;;;;;;17.13;45.34;102040.06;5055666;28;1206;-57
2022/12/05 04:50:12;;;;;;;;;;;;;;;16.79;46.10;102036.31;5050720;28;1193;-58
2022/12/05 04:52:37;;;;;;;;;;;;;;;18.39;43.07;102043.44;5044211;28;1158;-57
2022/12/05 04:55:10;;;;;;;;;;;;;;;17.13;45.59;102029.06;5055610;28;1231;-58
2022/12/05 04:57:39;;;;;;;;;;;;;;;16.76;45.74;102038.50;5054089;28;1289;-60
2022/12/05 05:00:05;;;;;;;;;;;;;;;17.63;44.79;102030.19;5037796;28;1117;-60
2022/12/05 05:02:32;;;;;;;;;;;;;;;16.95;45.62;102035.59;5036983;28;1913;-62
2022/12/05 05:04:57;;;;;;;;;;;;;;;17.89;44.42;102039.69;5037288;28;1105;-61
2022/12/05 05:07:22;;;;;;;;;;;;;;;17.39;45.27;102035.00;5037396;28;1139;-61
2022/12/05 05:09:48;;;;;;;;;;;;;;;16.85;45.78;102040.88;5054713;28;1179;-58
2022/12/05 05:12:13;;;;;;;;;;;;;;;17.81;44.62;102039.25;5058709;28;1092;-56
2022/12/05 05:14:39;;;;;;;;;;;;;;;16.83;46.15;102043.00;5059316;28;1274;-57
2022/12/05 05:17:04;;;;;;;;;;;;;;;17.50;45.11;102033.28;5058936;28;1120;-60
2022/12/05 05:19:30;;;;;;;;;;;;;;;17.68;44.63;102037.69;5059356;28;1226;-57
2022/12/05 05:21:55;;;;;;;;;;;;;;;16.90;45.99;102040.97;5058611;28;1371;-57
2022/12/05 05:24:22;;;;;;;;;;;;;;;17.57;45.09;102043.03;5041888;28;1971;-57
2022/12/05 05:26:47;;;;;;;;;;;;;;;17.10;45.72;102035.88;5054077;28;1156;-58
2022/12/05 05:29:13;;;;;;;;;;;;;;;17.27;45.90;102043.34;5040829;28;1144;-57
2022/12/05 05:31:38;;;;;;;;;;;;;;;18.38;42.80;102044.53;5058012;28;1179;-57
2022/12/05 05:34:04;;;;;;;;;;;;;;;17.22;45.14;102045.97;5068048;28;2530;-58
2022/12/05 05:36:29;;;;;;;;;;;;;;;16.79;45.89;102047.31;5058112;28;1199;-58
2022/12/05 05:38:56;;;;;;;;;;;;;;;17.47;45.11;102047.53;5058416;28;1127;-58
2022/12/05 05:41:25;;;;;;;;;;;;;;;17.09;45.68;102036.94;5058257;28;1147;-58
2022/12/05 05:43:50;;;;;;;;;;;;;;;17.52;45.29;102040.19;5043940;28;1914;-58
2022/12/05 05:46:16;;;;;;;;;;;;;;;18.40;42.85;102045.13;5058273;28;1155;-58
2022/12/05 05:48:42;;;;;;;;;;;;;;;17.22;45.28;102037.72;5058435;28;1085;-60
2022/12/05 05:51:08;;;;;;;;;;;;;;;16.88;45.33;102029.38;5058534;28;1242;-60
2022/12/05 05:53:33;;;;;;;;;;;;;;;16.74;45.08;102046.13;5040193;28;1124;-60
2022/12/05 05:56:05;;;;;;;;;;;;;;;17.58;44.81;102039.19;5057807;28;1249;-60
2022/12/05 05:58:31;;;;;;;;;;;;;;;16.75;46.05;102036.81;5058218;28;1170;-60
2022/12/05 06:01:10;;;;;;;;;;;;;;;18.00;44.28;102034.38;5057880;28;1196;-61
2022/12/05 06:03:35;;;;;;;;;;;;;;;17.23;45.65;102036.66;5057739;28;1984;-60
2022/12/05 06:06:02;;;;;;;;;;;;;;;17.20;45.64;102045.41;5057568;28;2449;-60
2022/12/05 06:08:28;;;;;;;;;;;;;;;18.22;43.50;102045.44;5057776;28;1207;-55
2022/12/05 06:10:54;;;;;;;;;;;;;;;17.16;45.59;102046.97;5058179;28;1144;-47
2022/12/05 06:13:19;;;;;;;;;;;;;;;16.83;45.66;102043.00;5057590;28;1227;-56
2022/12/05 06:15:45;;;;;;;;;;;;;;;17.36;45.39;102050.09;5057378;28;1132;-58
2022/12/05 06:18:10;;;;;;;;;;;;;;;16.85;45.95;102046.34;5056065;28;1187;-56
2022/12/05 06:20:35;;;;;;;;;;;;;;;18.53;42.97;102048.59;5056250;28;1072;-59
2022/12/05 06:23:01;;;;;;;;;;;;;;;17.36;45.29;102047.34;5056163;28;1913;-60
2022/12/05 06:25:26;;;;;;;;;;;;;;;16.99;45.50;102053.25;5057237;28;1104;-60
2022/12/05 06:27:52;;;;;;;;;;;;;;;16.74;45.79;102045.31;5057590;28;1148;-60
2022/12/05 06:30:17;;;;;;;;;;;;;;;17.65;44.00;102055.53;5057107;28;1246;-57
2022/12/05 06:32:43;;;;;;;;;;;;;;;17.06;45.51;102055.84;5057467;28;1132;-62
2022/12/05 06:35:14;;;;;;;;;;;;;;;16.78;45.99;102057.47;5056850;28;2487;-59
2022/12/05 06:37:43;;;;;;;;;;;;;;;16.55;46.53;102052.88;5044275;28;1093;-60
2022/12/05 06:40:08;;;;;;;;;;;;;;;16.35;47.18;102054.09;5057320;28;1123;-55
2022/12/05 06:42:34;;;;;;;;;;;;;;;16.16;47.33;102044.34;5056914;28;1913;-58
2022/12/05 06:44:59;;;;;;;;;;;;;;;16.06;47.89;102054.03;5056832;28;1140;-54
2022/12/05 06:47:25;;;;;;;;;;;;;;;16.54;46.87;102062.22;5057161;28;1164;-56
2022/12/05 06:49:50;;;;;;;;;;;;;;;17.10;45.31;102063.34;5057198;28;1148;-59
2022/12/05 06:52:17;;;;;;;;;;;;;;;16.41;47.01;102064.13;5057279;28;1206;-58
2022/12/05 06:54:42;;;;;;;;;;;;;;;16.12;47.76;102060.47;5056782;28;886;-54
2022/12/05 06:57:08;;;;;;;;;;;;;;;17.42;44.88;102068.34;5056955;28;1088;-58
2022/12/05 06:59:34;;;;;;;;;;;;;;;16.76;46.23;102073.38;5042906;28;1164;-56
2022/12/05 07:01:59;;;;;;;;;;;;;;;16.35;47.18;102081.56;5056913;28;1085;-58
2022/12/05 07:04:25;;;;;;;;;;;;;;;17.32;44.91;102079.16;5056807;28;1906;-59
2022/12/05 07:06:50;;;;;;;;;;;;;;;16.91;45.66;102079.22;5056877;28;925;-62
2022/12/05 07:09:17;;;;;;;;;;;;;;;16.31;47.06;102069.38;5057246;28;1147;-61
2022/12/05 07:11:45;;;;;;;;;;;;;;;16.12;47.70;102078.81;5057130;28;1198;-61
2022/12/05 07:14:11;;;;;;;;;;;;;;;17.24;45.23;102072.16;5057167;28;1203;-58
2022/12/05 07:16:36;;;;;;;;;;;;;;;16.92;45.77;102069.88;5056595;28;1124;-59
2022/12/05 07:19:02;;;;;;;;;;;;;;;16.36;47.24;102079.66;5056522;28;873;-61
2022/12/05 07:21:27;;;;;;;;;;;;;;;16.59;46.67;102076.03;5056558;28;1155;-62
2022/12/05 07:23:53;;;;;;;;;;;;;;;17.36;44.63;102080.34;5053130;28;1917;-59
2022/12/05 07:26:19;;;;;;;;;;;;;;;16.53;46.65;102077.00;5055922;28;1108;-59
2022/12/05 07:28:44;;;;;;;;;;;;;;;16.20;47.37;102075.72;5056388;28;1026;-60
2022/12/05 07:31:11;;;;;;;;;;;;;;;16.70;46.61;102071.59;5055618;28;1147;-61
2022/12/05 07:33:36;;;;;;;;;;;;;;;17.48;44.50;102063.78;5056021;28;1279;-64
2022/12/05 07:36:03;;;;;;;;;;;;;;;16.56;46.67;102073.78;5055602;28;2094;-62
2022/12/05 07:38:28;;;;;;;;;;;;;;;16.20;47.70;102079.31;5038322;28;1116;-63
2022/12/05 07:40:54;;;;;;;;;;;;;;;17.45;44.77;102073.34;5055990;28;1092;-61
2022/12/05 07:43:19;;;;;;;;;;;;;;;16.58;46.58;102091.69;5038035;28;1906;-61
2022/12/05 07:45:45;;;;;;;;;;;;;;;16.26;47.33;102077.53;5055917;28;1156;-63
2022/12/05 07:48:10;;;;;;;;;;;;;;;16.95;46.06;102085.03;5055564;28;1155;-62
2022/12/05 07:50:36;;;;;;;;;;;;;;;16.93;45.57;102087.22;5055380;28;1172;-58
2022/12/05 07:53:01;;;;;;;;;;;;;;;16.30;47.06;102084.19;5052680;28;1255;-58
2022/12/05 07:55:27;;;;;;;;;;;;;;;16.55;46.71;102088.56;5048296;28;1238;-59
2022/12/05 07:57:52;;;;;;;;;;;;;;;17.34;44.62;102085.25;5038736;28;1081;-60
2022/12/05 08:00:18;;;;;;;;;;;;;;;16.49;46.90;102093.13;5055364;28;1123;-61
2022/12/05 08:02:43;;;;;;;;;;;;;;;16.16;47.46;102094.59;5037818;28;1898;-59
2022/12/05 08:05:08;;;;;;;;;;;;;;;17.49;44.61;102092.09;5055204;28;1833;-59
2022/12/05 08:07:34;;;;;;;;;;;;;;;16.54;46.81;102092.41;5054847;28;865;-61
2022/12/05 08:09:59;;;;;;;;;;;;;;;16.21;47.54;102088.38;5055999;28;1072;-62
2022/12/05 08:12:25;;;;;;;;;;;;;;;15.99;48.26;102094.47;5055721;28;1147;-58
2022/12/05 08:14:50;;;;;;;;;;;;;;;16.08;48.14;102082.03;5056117;28;1124;-59
2022/12/05 08:17:16;;;;;;;;;;;;;;;17.12;45.22;102082.34;5055798;28;1144;-58
2022/12/05 08:19:42;;;;;;;;;;;;;;;16.27;47.30;102084.69;5055962;28;909;-59
2022/12/05 08:22:07;;;;;;;;;;;;;;;15.98;48.28;102090.03;5056127;28;1210;-58
2022/12/05 08:24:33;;;;;;;;;;;;;;;17.44;44.69;102087.34;5055492;28;1993;-57
2022/12/05 08:26:58;;;;;;;;;;;;;;;16.45;46.79;102086.44;5055690;28;1200;-57
2022/12/05 08:29:24;;;;;;;;;;;;;;;16.11;47.71;102088.97;5055592;28;1316;-58
2022/12/05 08:31:49;;;;;;;;;;;;;;;16.15;47.88;102078.34;5055574;28;837;-60
2022/12/05 08:34:15;;;;;;;;;;;;;;;17.45;44.47;102083.53;5056154;28;1836;-59
2022/12/05 08:36:41;;;;;;;;;;;;;;;16.45;46.93;102082.88;5055857;28;1155;-62
2022/12/05 08:39:07;;;;;;;;;;;;;;;16.12;47.69;102087.91;5041862;28;1243;-60
2022/12/05 08:41:32;;;;;;;;;;;;;;;17.38;44.75;102071.84;5041046;28;1183;-54
2022/12/05 08:44:00;;;;;;;;;;;;;;;16.63;46.45;102077.22;5052798;28;1983;-62
2022/12/05 08:46:25;;;;;;;;;;;;;;;16.17;47.57;102067.97;5058017;28;1195;-62
2022/12/05 08:48:51;;;;;;;;;;;;;;;15.89;48.27;102070.38;5059342;28;1061;-58
2022/12/05 08:51:16;;;;;;;;;;;;;;;17.01;45.88;102073.09;5059673;28;1191;-58
2022/12/05 08:53:41;;;;;;;;;;;;;;;16.72;46.03;102052.97;5060015;28;1148;-60
2022/12/05 08:56:07;;;;;;;;;;;;;;;16.14;47.84;102068.44;5059510;28;912;-60
2022/12/05 08:58:33;;;;;;;;;;;;;;;16.62;46.57;102064.59;5059210;28;1135;-65
2022/12/05 09:01:07;;;;;;;;;;;;;;;17.05;45.44;102063.25;5059584;28;1112;-59
2022/12/05 09:03:33;;;;;;;;;;;;;;;16.29;47.24;102065.22;5040877;28;1917;-61
2022/12/05 09:06:25;;;;;;;;;;;;;;;15.93;48.05;102056.16;5044512;28;2073;-57
2022/12/05 09:08:53;;;;;;;;;;;;;;;16.83;46.49;102060.34;5044364;28;1250;-61
2022/12/05 09:11:20;;;;;;;;;;;;;;;16.88;45.90;102062.34;5059120;28;1151;-58
2022/12/05 09:13:45;;;;;;;;;;;;;;;16.24;47.66;102080.50;5055938;28;1045;-58
2022/12/05 09:16:16;;;;;;;;;;;;;;;16.18;47.99;102064.16;5055582;28;1160;-59
2022/12/05 09:18:42;;;;;;;;;;;;;;;17.05;45.42;102063.25;5042755;28;1167;-60
2022/12/05 09:21:26;;;;;;;;;;;;;;;16.26;47.44;102072.03;5058599;28;1080;-59
2022/12/05 09:23:52;;;;;;;;;;;;;;;15.93;48.39;102064.41;5058824;28;1914;-60
2022/12/05 09:26:18;;;;;;;;;;;;;;;16.64;46.54;102073.41;5059023;28;1081;-58
2022/12/05 09:28:43;;;;;;;;;;;;;;;16.84;45.90;102061.16;5059352;28;1139;-59
2022/12/05 09:31:12;;;;;;;;;;;;;;;16.18;47.46;102072.38;5058433;28;946;-62
2022/12/05 09:33:38;;;;;;;;;;;;;;;16.49;47.04;102075.81;5058649;28;1194;-60
2022/12/05 09:36:07;;;;;;;;;;;;;;;17.02;45.75;102069.25;5040695;28;1949;-60
2022/12/05 09:38:33;;;;;;;;;;;;;;;16.22;47.44;102066.16;5058869;28;1124;-59
2022/12/05 09:41:20;;;;;;;;;;;;;;;15.91;48.49;102068.19;5058815;28;1136;-60
2022/12/05 09:44:04;;;;;;;;;;;;;;;17.35;45.16;102070.41;5036827;28;1963;-61
2022/12/05 09:46:33;;;;;;;;;;;;;;;16.38;47.23;102047.28;5058628;28;1180;-60
2022/12/05 09:48:58;;;;;;;;;;;;;;;15.98;48.02;102057.13;5058722;28;1135;-60
2022/12/05 09:51:24;;;;;;;;;;;;;;;15.83;48.65;102067.72;5058761;28;1045;-60
2022/12/05 09:53:49;;;;;;;;;;;;;;;17.35;45.03;102053.06;5058907;28;1096;-60
2022/12/05 09:56:20;;;;;;;;;;;;;;;16.57;46.76;102061.72;5057903;28;892;-58
2022/12/05 09:58:46;;;;;;;;;;;;;;;16.18;47.89;102056.75;5058416;28;1096;-56
2022/12/05 10:01:15;;;;;;;;;;;;;;;17.51;44.31;102043.19;5058370;28;1073;-59
2022/12/05 10:03:41;;;;;;;;;;;;;;;16.45;47.04;102049.91;5057997;28;1918;-59
2022/12/05 10:06:12;;;;;;;;;;;;;;;16.06;47.83;102040.31;5040258;28;1821;-57
2022/12/05 10:08:50;;;;;;;;;;;;;;;16.24;47.60;102046.72;5039459;28;1192;-58
2022/12/05 10:11:21;;;;;;;;;;;;;;;17.09;45.54;102045.19;5057204;28;1246;-59
2022/12/05 10:13:51;;;;;;;;;;;;;;;16.28;47.30;102047.09;5058051;28;1073;-60
2022/12/05 10:16:17;;;;;;;;;;;;;;;15.94;48.24;102031.22;5058075;28;1132;-61
2022/12/05 10:18:44;;;;;;;;;;;;;;;17.46;44.74;102032.94;5049718;28;1072;-61
2022/12/05 10:21:12;;;;;;;;;;;;;;;16.51;46.76;102040.69;5054929;28;1144;-58
2022/12/05 10:23:54;;;;;;;;;;;;;;;16.12;48.01;102043.13;5056567;28;1905;-60
2022/12/05 10:26:21;;;;;;;;;;;;;;;17.24;45.06;102030.91;5038739;28;1163;-60
2022/12/05 10:28:58;;;;;;;;;;;;;;;16.35;47.11;102026.66;5039822;28;1183;-60
2022/12/05 10:31:25;;;;;;;;;;;;;;;16.03;48.03;102028.97;5039127;28;1349;-58
2022/12/05 10:33:58;;;;;;;;;;;;;;;16.47;47.13;102017.59;5057645;28;1143;-60
2022/12/05 10:36:23;;;;;;;;;;;;;;;16.93;45.55;102027.59;5039496;28;1242;-59
2022/12/05 10:38:49;;;;;;;;;;;;;;;16.20;47.79;102024.44;5057612;28;1202;-59
2022/12/05 10:41:15;;;;;;;;;;;;;;;16.26;47.52;102025.38;5039967;28;1160;-58
2022/12/05 10:43:41;;;;;;;;;;;;;;;17.27;45.10;102024.09;5039415;28;1909;-59
2022/12/05 10:46:06;;;;;;;;;;;;;;;16.31;47.24;102019.16;5057597;28;1124;-62
2022/12/05 10:48:33;;;;;;;;;;;;;;;15.99;48.25;102014.91;5057665;28;1068;-58
2022/12/05 10:50:59;;;;;;;;;;;;;;;17.48;44.67;102016.19;5039915;28;1198;-60
2022/12/05 10:53:48;;;;;;;;;;;;;;;16.57;46.82;102012.28;5038518;28;1096;-60
2022/12/05 10:56:32;;;;;;;;;;;;;;;16.08;47.78;102010.69;5047632;28;937;-60
2022/12/05 10:58:58;;;;;;;;;;;;;;;15.99;48.29;102012.16;5052849;28;1116;-64
2022/12/05 11:01:23;;;;;;;;;;;;;;;17.20;45.24;102007.75;5047794;28;1128;-60
2022/12/05 11:03:54;;;;;;;;;;;;;;;16.31;47.32;102005.41;5039276;28;1997;-61
2022/12/05 11:06:27;;;;;;;;;;;;;;;15.94;48.18;102003.81;5057395;28;2643;-62
2022/12/05 11:08:53;;;;;;;;;;;;;;;17.40;45.01;102004.53;5056337;28;1516;-58
2022/12/05 11:11:29;;;;;;;;;;;;;;;16.54;46.49;101999.88;5056950;28;1203;-57
2022/12/05 11:13:55;;;;;;;;;;;;;;;16.07;47.94;101997.22;5039742;28;1093;-59
2022/12/05 11:16:24;;;;;;;;;;;;;;;16.18;47.95;102001.03;5057291;28;1112;-59
2022/12/05 11:18:49;;;;;;;;;;;;;;;17.25;45.13;101991.34;5056499;28;1100;-56
2022/12/05 11:21:16;;;;;;;;;;;;;;;16.37;47.30;101991.56;5037943;28;978;-59
2022/12/05 11:23:42;;;;;;;;;;;;;;;16.03;47.84;101987.81;5043452;28;1905;-59
2022/12/05 11:26:15;;;;;;;;;;;;;;;17.40;44.58;101974.28;5056485;28;1172;-57
2022/12/05 11:28:41;;;;;;;;;;;;;;;16.38;47.03;101979.53;5038923;28;1210;-59
2022/12/05 11:31:13;;;;;;;;;;;;;;;16.06;47.85;101979.94;5056656;28;1292;-60
2022/12/05 11:33:38;;;;;;;;;;;;;;;17.00;45.99;101979.88;5055943;28;918;-56
2022/12/05 11:36:03;;;;;;;;;;;;;;;16.83;46.08;101974.31;5056134;28;2767;-60
2022/12/05 11:38:31;;;;;;;;;;;;;;;16.19;47.58;101970.59;5056379;28;1117;-58
2022/12/05 11:41:05;;;;;;;;;;;;;;;15.91;48.13;101966.69;5056468;28;1108;-59
2022/12/05 11:43:31;;;;;;;;;;;;;;;16.51;47.02;101970.16;5055719;28;1917;-58
2022/12/05 11:46:03;;;;;;;;;;;;;;;16.98;45.48;101954.59;5056418;28;1123;-59
2022/12/05 11:48:41;;;;;;;;;;;;;;;16.21;47.73;101959.38;5038428;28;1096;-58
2022/12/05 11:51:10;;;;;;;;;;;;;;;16.05;47.98;101967.28;5056283;28;1151;-58
2022/12/05 11:53:52;;;;;;;;;;;;;;;17.50;44.62;101959.03;5056394;28;1152;-60
2022/12/05 11:56:41;;;;;;;;;;;;;;;16.40;47.19;101960.06;5038516;28;1001;-59
2022/12/05 11:59:09;;;;;;;;;;;;;;;16.06;47.92;101952.50;5032269;28;1383;-58
2022/12/05 12:01:35;;;;;;;;;;;;;;;15.81;48.72;101943.69;5056142;28;1187;-56
2022/12/05 12:04:06;;;;;;;;;;;;;;;15.69;48.78;101949.97;5056171;28;2482;-56
2022/12/05 12:06:50;;;;;;;;;;;;;;;16.89;46.22;101940.44;5056310;28;1076;-58
2022/12/05 12:09:16;;;;;;;;;;;;;;;16.76;46.31;101953.34;5055561;28;954;-59
2022/12/05 12:11:50;;;;;;;;;;;;;;;16.12;47.72;101947.09;5055702;28;1128;-61
2022/12/05 12:14:28;;;;;;;;;;;;;;;15.84;48.47;101949.53;5056179;28;1199;-61
2022/12/05 12:17:15;;;;;;;;;;;;;;;15.70;49.04;101934.38;5038309;28;1112;-61
2022/12/05 12:19:46;;;;;;;;;;;;;;;17.47;44.55;101935.59;5054671;28;1155;-59
2022/12/05 12:22:12;;;;;;;;;;;;;;;16.57;46.58;101935.41;5055860;28;1099;-55
2022/12/05 12:24:49;;;;;;;;;;;;;;;16.06;47.84;101935.19;5055704;28;1902;-61
2022/12/05 12:27:30;;;;;;;;;;;;;;;15.76;48.76;101936.16;5056057;28;1144;-61
2022/12/05 12:29:59;;;;;;;;;;;;;;;15.94;48.31;101935.22;5055816;28;1068;-61
2022/12/05 12:32:30;;;;;;;;;;;;;;;17.38;45.08;101937.13;5055771;28;1148;-61
2022/12/05 12:34:55;;;;;;;;;;;;;;;16.28;47.37;101932.63;5055912;28;1829;-61
2022/12/05 12:37:36;;;;;;;;;;;;;;;15.92;48.46;101929.13;5041228;28;1103;-61
2022/12/05 12:40:12;;;;;;;;;;;;;;;15.67;48.92;101935.69;5055383;28;1108;-62
2022/12/05 12:42:56;;;;;;;;;;;;;;;17.02;45.84;101926.34;5055550;28;1910;-61
2022/12/05 12:45:34;;;;;;;;;;;;;;;16.60;46.64;101918.44;5055545;28;1124;-61
2022/12/05 12:47:59;;;;;;;;;;;;;;;16.02;48.17;101918.38;5055694;28;1381;-61
2022/12/05 12:50:26;;;;;;;;;;;;;;;15.79;48.74;101913.75;5055346;28;1140;-62
2022/12/05 12:52:57;;;;;;;;;;;;;;;15.65;49.42;101915.06;5037969;28;1172;-59
2022/12/05 12:55:41;;;;;;;;;;;;;;;16.85;46.37;101914.50;5055401;28;1229;-61